Main page
METAR-TAF:

METAR-TAF

Airports :

Bahawalpur Airport

Bahawalpur, Pakistan

latitude: 29-20-53N, longitude: 71-43-04E, elevation: 119 m

METAR: missing

Time: 12:40 (07:40 UTC)

Forecast

The report was made 3 hours and 55 minutes ago, at 03:45 UTC
Forecast valid from 11 at 06 UTC to 11 at 24 UTC
Wind 12 kt from the Southwest
Visibility: 4000 m
Scattered clouds at a height of 12000 ft
haze
Probability 30% :
Temporary
from 11 at 20 UTC to 11 at 24 UTC
Wind 30 kt from the North
Visibility: 2000 m
Few clouds at a height of 3000 ft, Cumulonimbus.
Scattered clouds at a height of 4000 ft
Broken clouds at a height of 10000 ft
thunderstorm, rain

TAF: OPBW 110345Z 1106/1124 23012KT 4000 HZ SCT120 TX42/1110Z PROB30 TEMPO 1120/1124 36030KT 2000 TSRA FEW030CB SCT040 BKN100

Weather observations and forecasts of more than 4000 airports (METAR and TAF reports).

The available stations are represented by yellow and red dots on the map.

Hover mouse over dot to see the name of the station.

Then click to see weather observations and forecasts.

To change the map : click on the green buttons with a black cross to zoom in, on the green button with a dash to zoom out, or on the green arrows for adjacent maps.


METAR-TAF: